Time;durP1;ratioP1;P1;durP2;ratioP2;P2;SDS_P1;SDS_P2;PMS_P1;PMS_P2;Temp;Humidity;BMP_temperature;BMP_pressure;BME280_temperature;BME280_humidity;BME280_pressure;Samples;Min_cycle;Max_cycle;Signal;HPM_P1;HPM_P2
2024/01/27 00:00:16;;;;;;;11.63;5.60;;;;;;;6.38;100.00;100773.53;5549254;32;34889;-64
2024/01/27 00:03:19;;;;;;;10.75;5.50;;;;;;;6.45;100.00;100780.75;5549286;32;34729;-64
2024/01/27 00:06:22;;;;;;;10.00;4.80;;;;;;;6.42;100.00;100781.03;5549006;32;35003;-65
2024/01/27 00:09:25;;;;;;;9.93;4.87;;;;;;;6.37;100.00;100796.41;5548832;32;34102;-65
2024/01/27 00:12:28;;;;;;;11.73;5.00;;;;;;;6.31;100.00;100783.75;5549387;32;34694;-64
2024/01/27 00:15:31;;;;;;;10.65;4.70;;;;;;;6.29;100.00;100803.28;5549012;32;34687;-65
2024/01/27 00:18:36;;;;;;;10.38;4.30;;;;;;;6.19;100.00;100813.78;5548844;32;34089;-64
2024/01/27 00:21:39;;;;;;;10.18;4.05;;;;;;;6.26;100.00;100816.69;5548178;32;34695;-65
2024/01/27 00:24:42;;;;;;;8.07;3.70;;;;;;;6.32;100.00;100824.09;5548092;32;34794;-64
2024/01/27 00:27:45;;;;;;;8.90;3.80;;;;;;;6.31;100.00;100833.81;5547993;32;34107;-65
2024/01/27 00:30:48;;;;;;;8.60;3.67;;;;;;;6.43;100.00;100840.69;5550839;32;34083;-64
2024/01/27 00:33:51;;;;;;;6.95;3.65;;;;;;;6.62;100.00;100845.22;5551369;32;34139;-64
2024/01/27 00:36:53;;;;;;;9.63;3.22;;;;;;;6.68;100.00;100851.78;5550888;32;34100;-63
2024/01/27 00:39:56;;;;;;;9.35;3.50;;;;;;;6.72;100.00;100829.44;5551044;32;34023;-64
2024/01/27 00:42:59;;;;;;;7.87;3.00;;;;;;;6.72;100.00;100835.56;5551081;32;34147;-64
2024/01/27 00:46:02;;;;;;;6.50;2.85;;;;;;;6.58;100.00;100832.44;5551164;32;34885;-64
2024/01/27 00:49:04;;;;;;;16.85;4.65;;;;;;;6.48;100.00;100845.56;5551044;32;33987;-64
2024/01/27 00:52:07;;;;;;;13.95;6.57;;;;;;;6.48;100.00;100835.88;5550956;32;34015;-65
2024/01/27 00:55:10;;;;;;;6.85;3.17;;;;;;;6.52;100.00;100850.44;5551419;32;34107;-64
2024/01/27 00:58:13;;;;;;;6.32;1.80;;;;;;;6.43;100.00;100859.12;5550935;32;34782;-63
2024/01/27 01:01:16;;;;;;;6.25;1.80;;;;;;;6.45;100.00;100848.44;5550961;32;35019;-63
2024/01/27 01:04:19;;;;;;;4.37;1.60;;;;;;;6.48;100.00;100866.66;5551169;32;34137;-65
2024/01/27 01:07:21;;;;;;;4.32;1.55;;;;;;;6.49;100.00;100865.66;5551222;32;34551;-64
2024/01/27 01:10:24;;;;;;;6.18;1.45;;;;;;;6.40;100.00;100867.28;5551259;32;34033;-63
2024/01/27 01:13:27;;;;;;;4.00;1.60;;;;;;;6.37;100.00;100890.44;5550584;32;34092;-64
2024/01/27 01:16:30;;;;;;;4.80;1.58;;;;;;;6.40;100.00;100885.72;5550809;32;35107;-65
2024/01/27 01:19:32;;;;;;;5.20;1.55;;;;;;;6.40;100.00;100898.06;5550855;32;34727;-64
2024/01/27 01:22:35;;;;;;;4.37;1.70;;;;;;;6.31;100.00;100883.88;5551104;32;34059;-63
2024/01/27 01:25:38;;;;;;;4.57;1.80;;;;;;;6.27;100.00;100879.81;5550642;32;34752;-63
2024/01/27 01:28:41;;;;;;;3.90;1.55;;;;;;;6.30;100.00;100879.56;5550366;32;34067;-63
2024/01/27 01:31:44;;;;;;;3.67;1.80;;;;;;;6.31;100.00;100852.25;5550921;32;34066;-63
2024/01/27 01:34:47;;;;;;;4.97;1.60;;;;;;;6.23;100.00;100859.97;5550973;32;34394;-64
2024/01/27 01:37:50;;;;;;;4.93;1.50;;;;;;;6.15;100.00;100870.28;5550460;32;34217;-66
2024/01/27 01:40:53;;;;;;;2.50;1.30;;;;;;;6.26;100.00;100880.78;5549778;32;34015;-65
2024/01/27 01:43:56;;;;;;;4.00;1.40;;;;;;;6.21;100.00;100906.66;5550469;32;35147;-63
2024/01/27 01:46:59;;;;;;;4.53;1.35;;;;;;;6.16;100.00;100892.19;5550396;32;35111;-64
2024/01/27 01:50:02;;;;;;;2.75;1.25;;;;;;;6.07;100.00;100878.00;5549717;32;33998;-64
2024/01/27 01:53:05;;;;;;;3.62;1.37;;;;;;;6.05;100.00;100885.22;5550396;32;34142;-64
2024/01/27 01:56:08;;;;;;;4.05;1.40;;;;;;;6.11;100.00;100892.59;5550417;32;34088;-63
2024/01/27 01:59:11;;;;;;;3.65;1.30;;;;;;;6.12;100.00;100876.66;5550565;32;33985;-63
2024/01/27 02:02:14;;;;;;;4.43;1.30;;;;;;;6.02;100.00;100872.28;5550360;32;34821;-65
2024/01/27 02:05:17;;;;;;;3.55;1.25;;;;;;;6.00;100.00;100871.59;5549643;32;34062;-65
2024/01/27 02:08:20;;;;;;;4.87;1.10;;;;;;;6.02;100.00;100878.38;5550232;32;34581;-65
2024/01/27 02:11:23;;;;;;;3.87;1.20;;;;;;;6.08;100.00;100916.56;5550391;32;34143;-63
2024/01/27 02:14:27;;;;;;;2.33;1.02;;;;;;;5.99;100.00;100917.31;5550224;32;34741;-64
2024/01/27 02:17:30;;;;;;;3.95;1.20;;;;;;;5.91;100.00;100878.41;5549474;32;34113;-64
2024/01/27 02:20:32;;;;;;;6.37;1.20;;;;;;;5.98;100.00;100903.31;5550327;32;34023;-64
2024/01/27 02:23:35;;;;;;;3.97;1.12;;;;;;;5.94;100.00;100919.47;5549392;32;33981;-64
2024/01/27 02:26:38;;;;;;;5.78;1.20;;;;;;;5.92;100.00;100919.59;5550446;32;34152;-65
2024/01/27 02:29:41;;;;;;;3.30;1.30;;;;;;;5.84;100.00;100940.41;5550258;32;34081;-63
2024/01/27 02:32:43;;;;;;;2.67;1.10;;;;;;;5.78;100.00;100959.34;5550069;32;34734;-64
2024/01/27 02:35:48;;;;;;;6.22;1.20;;;;;;;5.74;100.00;100957.06;5550089;32;34063;-65
2024/01/27 02:38:51;;;;;;;4.80;1.10;;;;;;;5.73;100.00;100985.19;5550113;32;34257;-63
2024/01/27 02:41:54;;;;;;;2.70;0.95;;;;;;;5.71;100.00;100989.75;5550114;32;34321;-65
2024/01/27 02:44:56;;;;;;;4.72;1.00;;;;;;;5.69;100.00;100997.78;5549282;32;34640;-62
2024/01/27 02:47:59;;;;;;;3.92;2.05;;;;;;;5.69;100.00;101010.09;5549352;32;34028;-64
2024/01/27 02:51:03;;;;;;;2.95;0.90;;;;;;;5.68;100.00;101030.31;5550021;32;34227;-63
2024/01/27 02:54:06;;;;;;;2.33;0.80;;;;;;;5.64;100.00;101023.63;5549987;32;34770;-63
2024/01/27 02:57:09;;;;;;;5.18;1.10;;;;;;;5.61;100.00;101044.09;5549915;32;35570;-63
2024/01/27 03:00:12;;;;;;;1.73;0.77;;;;;;;5.56;100.00;101041.81;5550133;32;34097;-63
2024/01/27 03:03:15;;;;;;;3.17;0.85;;;;;;;5.58;100.00;101044.31;5550197;32;35083;-63
2024/01/27 03:06:18;;;;;;;3.67;0.90;;;;;;;5.46;100.00;101047.91;5549815;32;34104;-63
2024/01/27 03:09:20;;;;;;;3.83;0.90;;;;;;;5.45;100.00;101070.75;5549762;32;34235;-63
2024/01/27 03:12:23;;;;;;;2.37;0.70;;;;;;;5.29;100.00;101062.34;5549836;32;34016;-64
2024/01/27 03:15:26;;;;;;;2.65;0.85;;;;;;;5.35;100.00;101079.47;5549695;32;34162;-63
2024/01/27 03:18:29;;;;;;;4.47;1.00;;;;;;;5.35;100.00;101093.44;5549817;32;33941;-63
2024/01/27 03:21:32;;;;;;;1.40;0.80;;;;;;;5.38;100.00;101089.72;5548967;32;34056;-65
2024/01/27 03:24:35;;;;;;;2.45;0.75;;;;;;;5.39;100.00;101110.69;5549673;32;35007;-64
2024/01/27 03:27:38;;;;;;;2.37;0.70;;;;;;;5.39;100.00;101123.00;5549598;32;34033;-64
2024/01/27 03:30:41;;;;;;;6.70;0.95;;;;;;;5.42;100.00;101104.34;5549582;32;34721;-65
2024/01/27 03:33:43;;;;;;;3.40;0.80;;;;;;;5.36;100.00;101121.44;5549781;32;34022;-64
2024/01/27 03:36:49;;;;;;;2.03;0.65;;;;;;;5.33;100.00;101145.34;5549654;32;34609;-64
2024/01/27 03:39:52;;;;;;;2.50;0.80;;;;;;;5.28;100.00;101144.84;5549425;32;34339;-65
2024/01/27 03:42:55;;;;;;;2.25;0.80;;;;;;;5.32;100.00;101153.38;5549579;32;34188;-63
2024/01/27 03:45:58;;;;;;;1.55;0.70;;;;;;;5.29;100.00;101154.41;5549379;32;34771;-63
2024/01/27 03:49:01;;;;;;;1.67;0.75;;;;;;;5.31;100.00;101167.47;5549452;32;34107;-63
2024/01/27 03:52:05;;;;;;;3.85;1.17;;;;;;;5.16;100.00;101166.81;5549403;32;34138;-63
2024/01/27 03:55:08;;;;;;;1.92;0.70;;;;;;;5.08;100.00;101161.28;5549294;32;35120;-63
2024/01/27 03:58:10;;;;;;;2.40;0.90;;;;;;;4.97;100.00;101179.66;5548539;32;34028;-64
2024/01/27 04:01:14;;;;;;;2.60;0.82;;;;;;;4.90;100.00;101184.50;5549169;32;34719;-63
2024/01/27 04:04:17;;;;;;;3.28;1.15;;;;;;;4.90;100.00;101189.75;5547768;32;33957;-63
2024/01/27 04:07:20;;;;;;;2.78;0.90;;;;;;;4.87;100.00;101197.03;5548248;32;34175;-63
2024/01/27 04:10:23;;;;;;;2.65;0.90;;;;;;;4.85;100.00;101204.19;5548794;32;34463;-63
2024/01/27 04:13:26;;;;;;;1.87;0.90;;;;;;;4.77;100.00;101208.22;5548858;32;34113;-64
2024/01/27 04:16:29;;;;;;;2.83;1.15;;;;;;;4.78;100.00;101206.44;5548914;32;34056;-63
2024/01/27 04:19:31;;;;;;;3.15;0.88;;;;;;;4.78;100.00;101209.91;5548947;32;34041;-63
2024/01/27 04:22:35;;;;;;;3.87;0.90;;;;;;;4.76;100.00;101227.56;5548932;32;34087;-63
2024/01/27 04:25:38;;;;;;;5.47;1.20;;;;;;;4.77;100.00;101238.94;5548550;32;34108;-62
2024/01/27 04:28:41;;;;;;;2.78;0.70;;;;;;;4.77;100.00;101238.94;5548981;32;34008;-63
2024/01/27 04:31:43;;;;;;;3.33;1.00;;;;;;;4.76;100.00;101253.00;5548433;32;34344;-63
2024/01/27 04:34:46;;;;;;;3.83;0.90;;;;;;;4.73;100.00;101256.72;5548558;32;34730;-63
2024/01/27 04:37:49;;;;;;;3.90;1.00;;;;;;;4.63;100.00;101257.47;5548438;32;34855;-64
2024/01/27 04:40:52;;;;;;;2.65;0.88;;;;;;;4.62;100.00;101261.03;5548336;32;34793;-62
2024/01/27 04:43:56;;;;;;;4.62;1.27;;;;;;;4.54;100.00;101272.09;5548559;32;34108;-63
2024/01/27 04:46:59;;;;;;;2.58;0.90;;;;;;;4.46;100.00;101276.19;5548311;32;34217;-65
2024/01/27 04:50:03;;;;;;;2.33;0.75;;;;;;;4.48;100.00;101277.78;5548396;32;34004;-62
2024/01/27 04:53:06;;;;;;;4.32;1.15;;;;;;;4.49;100.00;101279.47;5547555;32;34142;-63
2024/01/27 04:56:09;;;;;;;2.83;1.10;;;;;;;4.45;100.00;101274.53;5548164;32;34151;-63
2024/01/27 04:59:12;;;;;;;3.75;1.05;;;;;;;4.38;100.00;101287.22;5548222;32;34809;-64
2024/01/27 05:02:15;;;;;;;4.43;0.95;;;;;;;4.41;100.00;101280.91;5548085;32;34119;-64
2024/01/27 05:05:18;;;;;;;4.90;1.35;;;;;;;4.25;100.00;101294.28;5548166;32;34120;-64
2024/01/27 05:08:20;;;;;;;3.47;1.05;;;;;;;4.04;100.00;101286.06;5547893;32;33983;-63
2024/01/27 05:11:32;;;;;;;3.72;1.05;;;;;;;4.00;100.00;101296.88;5547768;32;34248;-64
2024/01/27 05:14:34;;;;;;;2.62;1.10;;;;;;;4.00;100.00;101303.00;5548528;32;35012;-64
2024/01/27 05:17:37;;;;;;;5.50;1.58;;;;;;;3.93;100.00;101283.31;5550740;32;34070;-63
2024/01/27 05:20:40;;;;;;;5.35;1.15;;;;;;;3.96;100.00;101301.50;5550721;32;34759;-64
2024/01/27 05:23:43;;;;;;;4.82;1.10;;;;;;;3.91;100.00;101320.19;5550645;32;34083;-64
2024/01/27 05:26:45;;;;;;;6.30;1.33;;;;;;;4.15;100.00;101307.22;5549918;32;34260;-64
2024/01/27 05:29:49;;;;;;;4.50;1.37;;;;;;;4.13;100.00;101306.47;5550281;32;34282;-65
2024/01/27 05:32:52;;;;;;;6.28;1.20;;;;;;;4.07;100.00;101308.66;5549744;32;34780;-63
2024/01/27 05:35:55;;;;;;;5.90;1.40;;;;;;;4.10;100.00;101332.94;5550695;32;34136;-63
2024/01/27 05:38:58;;;;;;;5.82;1.17;;;;;;;4.12;100.00;101317.91;5550592;32;34028;-64
2024/01/27 05:42:01;;;;;;;4.40;1.48;;;;;;;4.16;100.00;101323.81;5550540;32;35755;-64
2024/01/27 05:45:04;;;;;;;7.00;1.50;;;;;;;4.15;100.00;101320.34;5550629;32;34036;-63
2024/01/27 05:48:07;;;;;;;5.43;1.30;;;;;;;4.11;100.00;101339.03;5550579;32;34095;-64
2024/01/27 05:51:10;;;;;;;4.68;1.30;;;;;;;4.07;100.00;101343.62;5550452;32;34142;-64
2024/01/27 05:54:16;;;;;;;7.28;1.83;;;;;;;4.05;100.00;101329.78;5549764;32;34753;-63
2024/01/27 05:57:19;;;;;;;9.70;1.60;;;;;;;4.14;100.00;101337.03;5550755;32;35085;-64
2024/01/27 06:00:22;;;;;;;5.32;1.33;;;;;;;4.04;100.00;101346.47;5550481;32;35768;-63
2024/01/27 06:03:26;;;;;;;9.18;1.60;;;;;;;4.05;100.00;101350.78;5550294;32;34754;-64
2024/01/27 06:06:29;;;;;;;7.65;1.50;;;;;;;4.04;100.00;101350.88;5550801;32;34299;-63
2024/01/27 06:09:32;;;;;;;6.12;1.70;;;;;;;4.20;100.00;101369.91;5550300;32;34873;-64
2024/01/27 06:12:35;;;;;;;9.02;1.70;;;;;;;4.09;100.00;101383.75;5550646;32;34973;-65
2024/01/27 06:15:39;;;;;;;7.28;1.55;;;;;;;4.09;100.00;101361.91;5550542;32;34059;-63
2024/01/27 06:18:41;;;;;;;7.28;1.58;;;;;;;4.18;100.00;101377.06;5550359;32;34730;-64
2024/01/27 06:21:44;;;;;;;7.62;1.58;;;;;;;4.22;100.00;101389.87;5550299;32;34021;-64
2024/01/27 06:24:47;;;;;;;8.45;1.58;;;;;;;4.24;100.00;101392.41;5550098;32;34782;-64
2024/01/27 06:27:50;;;;;;;7.03;1.62;;;;;;;4.14;100.00;101407.09;5549805;32;34751;-64
2024/01/27 06:30:53;;;;;;;6.78;1.60;;;;;;;4.14;100.00;101399.22;5545665;32;140204;-64
2024/01/27 06:33:56;;;;;;;6.95;1.40;;;;;;;4.05;100.00;101400.66;5550555;32;34100;-64
2024/01/27 06:36:58;;;;;;;5.93;1.42;;;;;;;4.07;100.00;101397.91;5550218;32;34617;-63
2024/01/27 06:40:03;;;;;;;5.80;1.37;;;;;;;4.06;100.00;101388.38;5549964;32;34053;-63
2024/01/27 06:43:05;;;;;;;9.23;1.58;;;;;;;4.09;100.00;101396.03;5549947;32;34189;-63
2024/01/27 06:46:08;;;;;;;10.50;2.08;;;;;;;4.20;100.00;101404.91;5550121;32;34439;-64
2024/01/27 06:49:11;;;;;;;8.23;1.70;;;;;;;4.21;100.00;101401.31;5549965;32;34214;-63
2024/01/27 06:52:14;;;;;;;7.32;1.58;;;;;;;4.29;100.00;101408.69;5550106;32;34736;-64
2024/01/27 06:55:17;;;;;;;8.02;1.60;;;;;;;4.20;100.00;101409.31;5549880;32;33994;-64
2024/01/27 06:58:20;;;;;;;5.97;1.42;;;;;;;4.18;100.00;101424.31;5549811;32;34110;-64
2024/01/27 07:01:23;;;;;;;5.65;1.35;;;;;;;4.22;100.00;101431.91;5549967;32;34703;-63
2024/01/27 07:04:26;;;;;;;9.10;1.50;;;;;;;4.14;100.00;101428.94;5550003;32;34117;-64
2024/01/27 07:07:29;;;;;;;7.12;1.70;;;;;;;4.20;100.00;101443.47;5549895;32;34727;-64
2024/01/27 07:10:31;;;;;;;6.80;1.35;;;;;;;4.14;100.00;101438.59;5549894;32;34743;-64
2024/01/27 07:13:34;;;;;;;8.13;1.60;;;;;;;4.20;100.00;101451.34;5549492;32;35082;-63
2024/01/27 07:16:37;;;;;;;5.90;1.45;;;;;;;4.27;100.00;101437.69;5549798;32;34155;-64
2024/01/27 07:19:40;;;;;;;8.60;1.37;;;;;;;4.33;100.00;101445.16;5549718;32;33981;-64
2024/01/27 07:22:43;;;;;;;6.95;1.60;;;;;;;4.41;100.00;101442.00;5549022;32;34002;-64
2024/01/27 07:25:46;;;;;;;7.05;1.60;;;;;;;4.41;100.00;101434.13;5549631;32;34703;-64
2024/01/27 07:28:49;;;;;;;8.02;1.70;;;;;;;4.35;100.00;101445.06;5549522;32;34168;-64
2024/01/27 07:31:52;;;;;;;6.37;1.33;;;;;;;4.36;100.00;101438.84;5548700;32;34351;-65
2024/01/27 07:34:55;;;;;;;5.32;1.40;;;;;;;4.43;100.00;101431.41;5548799;32;34134;-63
2024/01/27 07:37:58;;;;;;;6.15;1.40;;;;;;;4.49;100.00;101429.22;5548145;32;34180;-63
2024/01/27 07:41:01;;;;;;;12.60;2.00;;;;;;;4.71;100.00;101436.47;5549428;32;34073;-64
2024/01/27 07:44:13;;;;;;;5.57;1.30;;;;;;;4.68;100.00;101434.91;5549639;32;34354;-64
2024/01/27 07:47:16;;;;;;;5.20;1.48;;;;;;;4.89;100.00;101418.62;5549482;32;34216;-63
2024/01/27 07:50:19;;;;;;;5.18;1.48;;;;;;;4.98;100.00;101425.88;5549205;32;34229;-63
2024/01/27 07:53:22;;;;;;;4.32;1.17;;;;;;;5.04;100.00;101434.16;5549288;32;34843;-65
2024/01/27 07:56:25;;;;;;;7.55;1.60;;;;;;;5.00;100.00;101430.06;5549221;32;33931;-64
2024/01/27 07:59:28;;;;;;;5.53;1.65;;;;;;;5.00;100.00;101435.31;5549121;32;34729;-65
2024/01/27 08:02:30;;;;;;;6.78;1.55;;;;;;;5.03;100.00;101431.66;5548990;32;35021;-63
2024/01/27 08:05:33;;;;;;;9.20;1.45;;;;;;;5.00;100.00;101419.56;5548954;32;34045;-64
2024/01/27 08:08:36;;;;;;;7.40;1.80;;;;;;;4.98;100.00;101429.34;5548911;32;35155;-64
2024/01/27 08:11:39;;;;;;;5.07;1.48;;;;;;;5.04;100.00;101428.06;5549111;32;34717;-66
2024/01/27 08:14:41;;;;;;;4.75;1.30;;;;;;;4.96;100.00;101449.63;5548703;32;34300;-63
2024/01/27 08:17:44;;;;;;;6.75;1.40;;;;;;;5.04;100.00;101436.78;5548908;32;34695;-64
2024/01/27 08:20:47;;;;;;;7.68;1.50;;;;;;;5.09;100.00;101445.22;5548870;32;34159;-66
2024/01/27 08:23:50;;;;;;;5.43;1.17;;;;;;;5.09;100.00;101447.00;5548898;32;34204;-63
2024/01/27 08:26:53;;;;;;;4.93;1.40;;;;;;;5.12;100.00;101452.06;5548645;32;34077;-64
2024/01/27 08:29:56;;;;;;;6.28;1.50;;;;;;;5.14;100.00;101464.13;5548930;32;34127;-63
2024/01/27 08:33:00;;;;;;;4.80;1.40;;;;;;;5.16;100.00;101472.78;5548353;32;34292;-65
2024/01/27 08:36:03;;;;;;;5.05;1.30;;;;;;;5.15;100.00;101470.25;5548070;32;34040;-63
2024/01/27 08:39:09;;;;;;;6.25;1.30;;;;;;;5.16;100.00;101479.81;5547815;32;34549;-64
2024/01/27 08:42:12;;;;;;;7.22;1.60;;;;;;;5.14;100.00;101482.56;5548251;32;34279;-63
2024/01/27 08:45:15;;;;;;;6.47;1.20;;;;;;;5.29;100.00;101492.97;5548252;32;34967;-65
2024/01/27 08:48:18;;;;;;;4.65;1.40;;;;;;;5.28;100.00;101499.19;5547624;32;34067;-63
2024/01/27 08:51:21;;;;;;;6.57;1.40;;;;;;;5.28;100.00;101499.19;5550049;32;34808;-65
2024/01/27 08:54:24;;;;;;;6.40;1.17;;;;;;;5.25;100.00;101516.88;5551024;32;34549;-64
2024/01/27 08:57:26;;;;;;;3.42;1.05;;;;;;;5.33;100.00;101504.94;5550648;32;35032;-63
2024/01/27 09:00:29;;;;;;;5.87;1.45;;;;;;;5.32;100.00;101490.13;5550341;32;34759;-63
2024/01/27 09:03:32;;;;;;;5.53;1.50;;;;;;;5.38;100.00;101511.56;5550254;32;34033;-64
2024/01/27 09:06:35;;;;;;;6.97;1.30;;;;;;;5.33;100.00;101490.00;5550559;32;34244;-64
2024/01/27 09:09:38;;;;;;;4.00;1.10;;;;;;;5.34;100.00;101507.47;5550095;32;34144;-64
2024/01/27 09:12:42;;;;;;;6.93;1.58;;;;;;;5.31;100.00;101497.19;5550412;32;34132;-64
2024/01/27 09:15:45;;;;;;;4.72;1.45;;;;;;;5.32;100.00;101506.75;5550354;32;34386;-63
2024/01/27 09:18:50;;;;;;;3.20;1.08;;;;;;;5.30;100.00;101505.16;5550356;32;34956;-65
2024/01/27 09:21:53;;;;;;;4.35;1.40;;;;;;;5.24;100.00;101506.44;5550377;32;34060;-63
2024/01/27 09:24:55;;;;;;;5.90;1.50;;;;;;;5.32;100.00;101485.72;5550433;32;33996;-63
2024/01/27 09:28:00;;;;;;;5.30;1.50;;;;;;;5.38;100.00;101490.53;5548598;32;34206;-65
2024/01/27 09:31:03;;;;;;;7.07;1.27;;;;;;;5.45;100.00;101501.47;5550246;32;34453;-64
2024/01/27 09:34:06;;;;;;;4.68;1.30;;;;;;;5.47;100.00;101502.22;5550360;32;34825;-64
2024/01/27 09:37:09;;;;;;;4.22;1.25;;;;;;;5.49;100.00;101508.19;5550318;32;34091;-65
2024/01/27 09:40:12;;;;;;;4.85;1.50;;;;;;;5.54;100.00;101513.97;5549510;32;33309;-65
2024/01/27 09:43:18;;;;;;;3.70;1.48;;;;;;;5.46;100.00;101511.06;5549412;32;34025;-64
2024/01/27 09:46:20;;;;;;;4.22;1.30;;;;;;;5.59;100.00;101511.87;5550084;32;34413;-65
2024/01/27 09:49:26;;;;;;;6.15;1.40;;;;;;;5.66;100.00;101511.31;5550192;32;34053;-64
2024/01/27 09:52:29;;;;;;;3.15;1.15;;;;;;;5.74;100.00;101536.28;5549369;32;34309;-64
2024/01/27 09:55:32;;;;;;;4.72;1.50;;;;;;;5.74;100.00;101534.50;5549899;32;34235;-64
2024/01/27 09:58:35;;;;;;;6.18;1.33;;;;;;;5.87;100.00;101542.37;5549209;32;34148;-65
2024/01/27 10:01:39;;;;;;;5.47;1.23;;;;;;;5.98;100.00;101547.72;5548826;32;34004;-65
2024/01/27 10:04:43;;;;;;;5.85;1.70;;;;;;;5.93;100.00;101555.97;5549956;32;34814;-65
2024/01/27 10:07:46;;;;;;;6.78;1.45;;;;;;;5.83;100.00;101528.56;5549676;32;33990;-65
2024/01/27 10:10:57;;;;;;;8.48;1.65;;;;;;;5.95;100.00;101545.31;5549837;32;33853;-66
2024/01/27 10:14:00;;;;;;;9.07;1.55;;;;;;;5.80;100.00;101535.84;5549728;32;34766;-64
2024/01/27 10:17:03;;;;;;;3.97;1.27;;;;;;;6.07;100.00;101524.19;5549708;32;34943;-64
2024/01/27 10:20:09;;;;;;;6.18;1.25;;;;;;;6.24;98.96;101533.53;5549739;32;34211;-64
2024/01/27 10:23:13;;;;;;;5.35;1.25;;;;;;;6.36;90.00;101537.03;5550119;32;33977;-63
2024/01/27 10:26:16;;;;;;;6.28;1.55;;;;;;;6.24;88.24;101538.81;5549914;32;34059;-65
2024/01/27 10:29:18;;;;;;;5.40;1.52;;;;;;;6.27;83.79;101506.09;5549875;32;34730;-63
2024/01/27 10:32:23;;;;;;;5.82;1.65;;;;;;;6.29;85.12;101518.22;5549852;32;35052;-63
2024/01/27 10:35:26;;;;;;;6.12;1.70;;;;;;;6.36;86.74;101513.31;5549724;32;34774;-64
2024/01/27 10:38:39;;;;;;;6.85;1.70;;;;;;;6.33;81.40;101522.31;5549085;32;34920;-63
2024/01/27 10:41:45;;;;;;;6.43;1.50;;;;;;;6.28;79.97;101528.87;5549833;32;35030;-64
2024/01/27 10:44:48;;;;;;;6.28;1.77;;;;;;;6.31;77.57;101526.84;5549285;32;34093;-63
2024/01/27 10:47:52;;;;;;;9.15;2.00;;;;;;;6.17;79.79;101516.47;5549009;32;34889;-64
2024/01/27 10:50:56;;;;;;;6.37;1.75;;;;;;;6.49;78.78;101549.19;5549849;32;34058;-65
2024/01/27 10:54:02;;;;;;;6.12;1.50;;;;;;;6.58;79.00;101538.94;5548976;32;33986;-65
2024/01/27 10:57:07;;;;;;;9.90;3.97;;;;;;;6.45;77.04;101528.47;5549547;32;34127;-64
2024/01/27 11:00:12;;;;;;;7.53;2.50;;;;;;;6.60;79.58;101542.31;5549651;32;35062;-66
2024/01/27 11:03:18;;;;;;;7.43;1.75;;;;;;;6.70;79.51;101540.66;5549627;32;34106;-64
2024/01/27 11:06:22;;;;;;;7.62;1.73;;;;;;;6.65;77.15;101514.63;5548960;32;34113;-64
2024/01/27 11:09:25;;;;;;;6.72;1.67;;;;;;;6.54;78.66;101536.53;5549674;32;34273;-65
2024/01/27 11:12:30;;;;;;;10.02;1.90;;;;;;;6.51;76.54;101533.28;5549615;32;35132;-65
2024/01/27 11:15:33;;;;;;;6.15;1.60;;;;;;;6.68;78.38;101542.59;5549595;32;34193;-66
2024/01/27 11:18:36;;;;;;;8.00;1.83;;;;;;;6.60;75.60;101527.31;5549354;32;34432;-66
2024/01/27 11:21:39;;;;;;;6.30;1.77;;;;;;;6.73;75.21;101548.37;5549361;32;34744;-65
2024/01/27 11:24:43;;;;;;;7.87;1.75;;;;;;;6.64;75.49;101520.88;5549501;32;34038;-63
2024/01/27 11:27:51;;;;;;;7.78;1.70;;;;;;;6.63;77.21;101513.94;5549488;32;34070;-64
2024/01/27 11:30:54;;;;;;;7.78;1.60;;;;;;;6.55;75.85;101538.22;5548538;32;34132;-65
2024/01/27 11:33:58;;;;;;;6.80;1.70;;;;;;;6.44;75.85;101534.69;5549356;32;34014;-64
2024/01/27 11:37:10;;;;;;;7.03;1.70;;;;;;;6.67;75.38;101539.13;5549646;32;34137;-65
2024/01/27 11:40:13;;;;;;;7.05;1.58;;;;;;;6.86;74.39;101538.56;5549415;32;35089;-64
2024/01/27 11:43:16;;;;;;;7.93;1.70;;;;;;;7.16;72.38;101538.03;5549216;32;34715;-64
2024/01/27 11:46:20;;;;;;;6.03;1.50;;;;;;;7.13;72.27;101538.25;5548345;32;34096;-64
2024/01/27 11:49:23;;;;;;;6.72;1.58;;;;;;;6.91;71.58;101532.00;5548411;32;35211;-64
2024/01/27 11:52:27;;;;;;;6.85;1.90;;;;;;;6.68;72.02;101529.41;5549163;32;34096;-64
2024/01/27 11:55:30;;;;;;;10.48;2.15;;;;;;;6.77;73.82;101526.06;5548968;32;34173;-67
2024/01/27 11:58:33;;;;;;;9.95;2.20;;;;;;;6.82;74.34;101523.94;5549344;32;34132;-64
2024/01/27 12:01:37;;;;;;;6.07;1.80;;;;;;;6.65;75.62;101514.63;5549400;32;32491;-66
2024/01/27 12:04:42;;;;;;;6.68;2.05;;;;;;;6.54;74.93;101527.78;5548835;32;33965;-64
2024/01/27 12:07:45;;;;;;;7.75;1.92;;;;;;;6.53;75.81;101526.94;5548930;32;34058;-64
2024/01/27 12:10:48;;;;;;;6.93;2.05;;;;;;;6.82;76.53;101518.66;5548846;32;35075;-64
2024/01/27 12:13:51;;;;;;;11.77;2.00;;;;;;;7.00;75.48;101564.75;5548820;32;34700;-65
2024/01/27 12:16:55;;;;;;;8.85;2.22;;;;;;;7.04;72.61;101533.69;5548834;32;35004;-63
2024/01/27 12:19:57;;;;;;;6.10;1.70;;;;;;;7.35;71.75;101552.34;5548539;32;34283;-63
2024/01/27 12:23:05;;;;;;;5.22;1.35;;;;;;;7.90;68.12;101563.00;5548655;32;34041;-64
2024/01/27 12:26:14;;;;;;;9.10;1.90;;;;;;;8.21;65.24;101563.09;5549596;32;34039;-65
2024/01/27 12:29:20;;;;;;;9.32;1.90;;;;;;;8.48;64.99;101559.19;5551436;32;34025;-64
2024/01/27 12:32:24;;;;;;;8.88;1.90;;;;;;;7.51;67.80;101556.41;5550734;32;34069;-65
2024/01/27 12:35:28;;;;;;;8.55;2.10;;;;;;;7.18;70.40;101544.88;5550910;32;34008;-64
2024/01/27 12:38:32;;;;;;;8.23;1.92;;;;;;;7.02;70.34;101546.97;5550973;32;34037;-65
2024/01/27 12:41:36;;;;;;;7.68;1.85;;;;;;;6.77;71.14;101540.09;5537249;32;34888;-65
2024/01/27 12:44:39;;;;;;;3.67;1.50;;;;;;;6.62;73.06;101529.84;5550810;32;34014;-63
2024/01/27 12:47:43;;;;;;;5.93;2.00;;;;;;;6.55;72.36;101517.12;5550861;32;34237;-64
2024/01/27 12:50:45;;;;;;;11.25;2.20;;;;;;;6.45;74.08;101533.72;5550752;32;34249;-65
2024/01/27 12:53:48;;;;;;;10.65;2.20;;;;;;;6.46;75.52;101541.53;5550788;32;34843;-64
2024/01/27 12:56:51;;;;;;;10.55;1.98;;;;;;;6.42;75.62;101487.37;5550804;32;32363;-64
2024/01/27 12:59:54;;;;;;;15.68;1.87;;;;;;;6.39;76.76;101528.94;5537336;32;34174;-65
2024/01/27 13:02:57;;;;;;;10.20;2.15;;;;;;;6.36;76.27;101524.72;5550843;32;34772;-63
2024/01/27 13:06:00;;;;;;;9.80;1.85;;;;;;;6.50;77.35;101510.50;5551211;32;34257;-64
2024/01/27 13:09:04;;;;;;;8.05;2.10;;;;;;;6.32;77.24;101490.78;5550718;32;34043;-64
2024/01/27 13:12:07;;;;;;;9.80;2.30;;;;;;;6.45;77.38;101523.19;5550740;32;34726;-64
2024/01/27 13:15:10;;;;;;;9.15;2.30;;;;;;;6.46;77.47;101506.41;5550701;32;35048;-64
2024/01/27 13:18:13;;;;;;;7.55;2.05;;;;;;;6.42;77.78;101508.44;5550606;32;34003;-64
2024/01/27 13:21:16;;;;;;;7.70;1.77;;;;;;;6.29;77.69;101498.94;5550334;32;35173;-64
2024/01/27 13:24:20;;;;;;;9.23;1.90;;;;;;;6.15;77.46;101504.37;5550555;32;34087;-63
2024/01/27 13:27:22;;;;;;;8.32;1.95;;;;;;;6.19;77.17;101498.78;5550684;32;34048;-63
2024/01/27 13:30:28;;;;;;;9.05;2.33;;;;;;;6.15;76.96;101504.37;5550281;32;34012;-65
2024/01/27 13:33:32;;;;;;;7.55;2.00;;;;;;;6.07;75.47;101502.28;5550407;32;34331;-63
2024/01/27 13:36:36;;;;;;;7.72;1.95;;;;;;;6.19;76.85;101514.59;5550381;32;34017;-64
2024/01/27 13:39:38;;;;;;;6.93;1.95;;;;;;;6.26;76.12;101507.87;5550433;32;34751;-64
2024/01/27 13:42:41;;;;;;;10.35;2.12;;;;;;;6.23;75.90;101502.84;5550190;32;34032;-65
2024/01/27 13:45:45;;;;;;;6.15;1.75;;;;;;;6.22;74.70;101521.41;5549662;32;33976;-64
2024/01/27 13:48:49;;;;;;;7.10;2.10;;;;;;;6.23;74.81;101516.03;5550343;32;35048;-63
2024/01/27 13:51:52;;;;;;;12.00;2.08;;;;;;;6.19;75.48;101513.72;5536801;32;34388;-62
2024/01/27 13:54:55;;;;;;;11.65;2.53;;;;;;;6.16;75.55;101530.59;5550498;32;34192;-65
2024/01/27 13:57:58;;;;;;;8.45;2.40;;;;;;;6.18;75.28;101531.34;5550308;32;34784;-65
2024/01/27 14:01:01;;;;;;;10.57;2.00;;;;;;;6.19;75.92;101538.28;5550267;32;34141;-64
2024/01/27 14:04:04;;;;;;;8.52;2.17;;;;;;;6.23;75.03;101531.84;5550124;32;34134;-64
2024/01/27 14:07:08;;;;;;;10.18;2.05;;;;;;;6.16;76.89;101535.84;5550085;32;33999;-63
2024/01/27 14:10:11;;;;;;;8.25;2.15;;;;;;;6.06;76.11;101522.50;5550181;32;34278;-64
2024/01/27 14:13:14;;;;;;;9.38;2.17;;;;;;;5.99;77.34;101530.97;5549379;32;34658;-64